createdAt,value
2022-11-01T00:00:24.218Z,0.00
2022-11-01T00:01:24.360Z,0.00
2022-11-01T00:02:24.378Z,0.00
2022-11-01T00:03:24.349Z,0.00
2022-11-01T00:04:24.389Z,0.00
2022-11-01T00:05:24.371Z,0.00
2022-11-01T00:06:24.350Z,0.00
2022-11-01T00:07:24.410Z,0.00
2022-11-01T00:08:24.470Z,0.00
2022-11-01T00:09:24.480Z,0.00
2022-11-01T00:10:24.542Z,0.00
2022-11-01T00:11:24.510Z,0.00
2022-11-01T00:12:24.561Z,0.00
2022-11-01T00:13:24.622Z,0.00
2022-11-01T00:14:24.631Z,0.00
2022-11-01T00:15:24.673Z,0.00
2022-11-01T00:16:24.724Z,0.00
2022-11-01T00:17:24.743Z,0.00
2022-11-01T00:18:24.775Z,0.00
2022-11-01T00:19:24.823Z,0.00
2022-11-01T00:20:24.835Z,0.00
2022-11-01T00:21:24.834Z,0.00
2022-11-01T00:22:24.815Z,0.00
2022-11-01T00:23:24.815Z,0.00
2022-11-01T00:24:24.817Z,0.00
2022-11-01T00:25:24.855Z,0.00
2022-11-01T00:26:24.895Z,0.00
2022-11-01T00:27:24.883Z,0.00
2022-11-01T00:28:24.923Z,0.00
2022-11-01T00:29:24.955Z,0.00
2022-11-01T00:30:24.946Z,0.00
2022-11-01T00:31:25.008Z,0.00
2022-11-01T00:32:25.088Z,0.00
2022-11-01T00:33:25.097Z,0.00
2022-11-01T00:34:25.092Z,0.00
2022-11-01T00:35:25.128Z,0.00
2022-11-01T00:36:25.159Z,0.00
2022-11-01T00:37:25.219Z,0.00
2022-11-01T00:38:25.259Z,0.00
2022-11-01T00:39:30.383Z,0.00
2022-11-01T00:40:25.328Z,0.00
2022-11-01T00:41:25.345Z,0.00
2022-11-01T00:42:25.392Z,0.00
2022-11-01T00:43:25.474Z,0.00
2022-11-01T00:44:25.471Z,0.00
2022-11-01T00:45:25.485Z,0.00
2022-11-01T00:46:25.532Z,0.00
2022-11-01T00:47:25.534Z,0.00
2022-11-01T00:48:25.614Z,0.00
2022-11-01T00:49:25.644Z,0.00
2022-11-01T00:50:25.654Z,0.00
2022-11-01T00:51:25.708Z,0.00
2022-11-01T00:52:25.745Z,0.00
2022-11-01T00:53:25.738Z,0.00
2022-11-01T00:54:25.795Z,0.00
2022-11-01T00:55:25.867Z,0.00
2022-11-01T00:56:25.875Z,0.00
2022-11-01T00:57:25.889Z,0.00
2022-11-01T00:58:25.883Z,0.00
2022-11-01T00:59:25.928Z,0.00
2022-11-01T01:00:26.020Z,0.00
2022-11-01T01:01:26.237Z,0.00
2022-11-01T01:02:26.173Z,0.00
2022-11-01T01:03:26.139Z,0.00
2022-11-01T01:04:26.147Z,0.00
2022-11-01T01:05:26.220Z,0.00
2022-11-01T01:06:26.289Z,0.00
2022-11-01T01:07:26.338Z,0.00
2022-11-01T01:08:26.398Z,0.00
2022-11-01T01:09:26.440Z,0.00
2022-11-01T01:10:26.509Z,0.00
2022-11-01T01:11:26.480Z,0.00
2022-11-01T01:12:26.500Z,0.00
2022-11-01T01:13:26.499Z,0.00
2022-11-01T01:14:31.414Z,0.00
2022-11-01T01:15:26.581Z,0.00
2022-11-01T01:16:26.652Z,0.00
2022-11-01T01:17:28.756Z,0.00
2022-11-01T01:18:26.656Z,0.00
2022-11-01T01:19:26.664Z,0.00
2022-11-01T01:20:26.735Z,0.00
2022-11-01T01:21:26.763Z,0.00
2022-11-01T01:22:26.763Z,0.00
2022-11-01T01:23:26.757Z,0.00
2022-11-01T01:24:26.763Z,0.00
2022-11-01T01:25:26.765Z,0.00
2022-11-01T01:26:26.756Z,0.00
2022-11-01T01:27:26.823Z,0.00
2022-11-01T01:28:26.795Z,0.00
2022-11-01T01:29:26.858Z,0.00
2022-11-01T01:30:26.860Z,0.00
2022-11-01T01:31:26.838Z,0.00
2022-11-01T01:32:26.893Z,0.00
2022-11-01T01:33:26.937Z,0.00
2022-11-01T01:34:26.963Z,0.00
2022-11-01T01:35:26.970Z,0.00
2022-11-01T01:36:27.014Z,0.00
2022-11-01T01:37:27.087Z,0.00
2022-11-01T01:38:27.038Z,0.00
2022-11-01T01:39:27.159Z,0.00
2022-11-01T01:40:27.129Z,0.00
2022-11-01T01:41:27.252Z,0.00
2022-11-01T01:42:27.192Z,0.00
2022-11-01T01:43:27.189Z,0.00
2022-11-01T01:44:27.244Z,0.00
2022-11-01T01:45:27.291Z,0.00
2022-11-01T01:46:27.293Z,0.00
2022-11-01T01:47:27.340Z,0.00
2022-11-01T01:48:27.403Z,0.00
2022-11-01T01:49:27.401Z,0.00
2022-11-01T01:50:27.453Z,0.00
2022-11-01T01:51:27.502Z,0.00
2022-11-01T01:52:27.553Z,0.00
2022-11-01T01:53:27.557Z,0.00
2022-11-01T01:54:27.624Z,0.00
2022-11-01T01:55:27.634Z,0.00
2022-11-01T01:56:27.694Z,0.00
2022-11-01T01:57:27.725Z,0.00
2022-11-01T01:58:27.765Z,0.00
2022-11-01T01:59:27.805Z,0.00
2022-11-01T02:00:27.845Z,0.00
2022-11-01T02:01:28.019Z,0.00
2022-11-01T02:02:32.735Z,0.00
2022-11-01T02:03:27.956Z,0.00
2022-11-01T02:04:28.026Z,0.00
2022-11-01T02:05:27.987Z,0.00
2022-11-01T02:06:28.019Z,0.00
2022-11-01T02:07:28.083Z,0.00
2022-11-01T02:08:28.224Z,0.00
2022-11-01T02:09:30.902Z,0.00
2022-11-01T02:10:28.197Z,0.00
2022-11-01T02:11:28.269Z,0.00
2022-11-01T02:12:28.308Z,0.00
2022-11-01T02:13:28.319Z,0.00
2022-11-01T02:14:28.359Z,0.00
2022-11-01T02:15:28.420Z,0.00
2022-11-01T02:16:28.448Z,0.00
2022-11-01T02:17:28.462Z,0.00
2022-11-01T02:18:28.521Z,0.00
2022-11-01T02:19:28.611Z,0.00
2022-11-01T02:20:28.652Z,0.00
2022-11-01T02:21:28.702Z,0.00
2022-11-01T02:22:28.742Z,0.00
2022-11-01T02:23:28.783Z,0.00
2022-11-01T02:24:28.825Z,0.00
2022-11-01T02:25:28.901Z,0.00
2022-11-01T02:26:28.903Z,0.00
2022-11-01T02:27:28.958Z,0.00
2022-11-01T02:28:28.966Z,0.00
2022-11-01T02:29:28.977Z,0.00
2022-11-01T02:30:29.034Z,0.00
2022-11-01T02:31:29.033Z,0.00
2022-11-01T02:32:29.006Z,0.00
2022-11-01T02:33:29.027Z,0.00
2022-11-01T02:34:29.086Z,0.00
2022-11-01T02:35:29.116Z,0.00
2022-11-01T02:36:29.156Z,0.00
2022-11-01T02:37:29.218Z,0.00
2022-11-01T02:38:29.197Z,0.00
2022-11-01T02:39:29.220Z,0.00
2022-11-01T02:40:29.280Z,0.00
2022-11-01T02:41:29.328Z,0.00
2022-11-01T02:42:29.439Z,0.00
2022-11-01T02:43:29.468Z,0.00
2022-11-01T02:44:29.438Z,0.00
2022-11-01T02:45:29.459Z,0.00
2022-11-01T02:46:29.489Z,0.00
2022-11-01T02:47:29.571Z,0.00
2022-11-01T02:48:29.582Z,0.00
2022-11-01T02:49:29.611Z,0.00
2022-11-01T02:50:29.605Z,0.00
2022-11-01T02:51:29.651Z,0.00
2022-11-01T02:52:29.682Z,0.00
2022-11-01T02:53:29.766Z,0.00
2022-11-01T02:54:29.762Z,0.00
2022-11-01T02:55:30.330Z,0.00
2022-11-01T02:56:29.793Z,0.00
2022-11-01T02:57:29.853Z,0.00
2022-11-01T02:58:29.813Z,0.00
2022-11-01T02:59:29.846Z,0.00
2022-11-01T03:00:29.917Z,0.00
2022-11-01T03:01:30.072Z,0.00
2022-11-01T03:02:29.895Z,0.00
2022-11-01T03:03:29.955Z,0.00
2022-11-01T03:04:30.045Z,0.00
2022-11-01T03:05:30.057Z,0.00
2022-11-01T03:06:30.036Z,0.00
2022-11-01T03:07:30.079Z,0.00
2022-11-01T03:08:30.137Z,0.00
2022-11-01T03:09:30.177Z,0.00
2022-11-01T03:10:30.240Z,0.00
2022-11-01T03:11:30.218Z,0.00
2022-11-01T03:12:30.215Z,0.00
2022-11-01T03:13:30.207Z,0.00
2022-11-01T03:14:30.274Z,0.00
2022-11-01T03:15:30.250Z,0.00
2022-11-01T03:16:30.230Z,0.00
2022-11-01T03:17:30.283Z,0.00
2022-11-01T03:18:30.330Z,0.00
2022-11-01T03:19:30.310Z,0.00
2022-11-01T03:20:30.363Z,0.00
2022-11-01T03:21:30.352Z,0.00
2022-11-01T03:22:30.422Z,0.00
2022-11-01T03:23:30.471Z,0.00
2022-11-01T03:24:30.522Z,0.00
2022-11-01T03:25:30.572Z,0.00
2022-11-01T03:26:30.572Z,0.00
2022-11-01T03:27:30.633Z,0.00
2022-11-01T03:28:30.713Z,0.00
2022-11-01T03:29:30.689Z,0.00
2022-11-01T03:30:30.676Z,0.00
2022-11-01T03:31:30.715Z,0.00
2022-11-01T03:32:30.784Z,0.00
2022-11-01T03:33:30.825Z,0.00
2022-11-01T03:34:30.855Z,0.00
2022-11-01T03:35:30.938Z,0.00
2022-11-01T03:36:30.935Z,0.00
2022-11-01T03:37:30.976Z,0.00
2022-11-01T03:38:31.026Z,0.00
2022-11-01T03:39:31.067Z,0.00
2022-11-01T03:40:31.119Z,0.00
2022-11-01T03:41:31.158Z,0.00
2022-11-01T03:42:31.202Z,0.00
2022-11-01T03:43:31.208Z,0.00
2022-11-01T03:44:31.271Z,0.00
2022-11-01T03:45:31.249Z,0.00
2022-11-01T03:46:31.252Z,0.00
2022-11-01T03:47:31.278Z,0.00
2022-11-01T03:48:31.320Z,0.00
2022-11-01T03:49:31.340Z,0.00
2022-11-01T03:50:31.390Z,0.00
2022-11-01T03:51:31.453Z,0.00
2022-11-01T03:52:31.440Z,0.00
2022-11-01T03:53:31.490Z,0.00
2022-11-01T03:54:31.562Z,0.00
2022-11-01T03:55:31.621Z,0.00
2022-11-01T03:56:31.803Z,0.00
2022-11-01T03:57:31.656Z,0.00
2022-11-01T03:58:31.692Z,0.00
2022-11-01T03:59:31.744Z,0.00
2022-11-01T04:00:31.802Z,0.00
2022-11-01T04:01:31.935Z,0.00
2022-11-01T04:02:31.863Z,0.00
2022-11-01T04:03:31.916Z,0.00
2022-11-01T04:04:31.966Z,0.00
2022-11-01T04:05:32.016Z,0.00
2022-11-01T04:06:32.055Z,0.00
2022-11-01T04:07:32.116Z,0.00
2022-11-01T04:08:32.166Z,0.00
2022-11-01T04:09:32.164Z,0.00
2022-11-01T04:10:32.137Z,0.00
2022-11-01T04:11:32.177Z,0.00
2022-11-01T04:12:32.238Z,0.00
2022-11-01T04:13:32.297Z,0.00
2022-11-01T04:14:32.347Z,0.00
2022-11-01T04:15:32.407Z,0.00
2022-11-01T04:16:32.459Z,0.00
2022-11-01T04:17:32.506Z,0.00
2022-11-01T04:18:32.604Z,0.00
2022-11-01T04:19:32.588Z,0.00
2022-11-01T04:20:32.627Z,0.00
2022-11-01T04:21:32.669Z,0.00
2022-11-01T04:22:32.701Z,0.00
2022-11-01T04:23:32.761Z,0.00
2022-11-01T04:24:32.820Z,0.00
2022-11-01T04:25:32.868Z,0.00
2022-11-01T04:26:32.911Z,0.00
2022-11-01T04:27:32.950Z,0.00
2022-11-01T04:28:33.003Z,0.00
2022-11-01T04:29:33.022Z,0.00
2022-11-01T04:30:33.063Z,0.00
2022-11-01T04:31:33.103Z,0.00
2022-11-01T04:32:33.143Z,0.00
2022-11-01T04:33:33.176Z,0.00
2022-11-01T04:34:33.244Z,0.00
2022-11-01T04:35:33.236Z,0.00
2022-11-01T04:36:33.254Z,0.00
2022-11-01T04:37:33.312Z,0.00
2022-11-01T04:38:33.402Z,0.00
2022-11-01T04:39:33.405Z,0.00
2022-11-01T04:40:33.446Z,0.00
2022-11-01T04:41:33.460Z,0.00
2022-11-01T04:42:33.486Z,0.00
2022-11-01T04:43:33.528Z,0.00
2022-11-01T04:44:33.577Z,0.00
2022-11-01T04:45:33.617Z,0.00
2022-11-01T04:46:33.649Z,0.00
2022-11-01T04:47:33.711Z,0.00
2022-11-01T04:48:33.750Z,0.00
2022-11-01T04:49:33.756Z,0.00
2022-11-01T04:50:33.792Z,0.00
2022-11-01T04:51:33.856Z,0.00
2022-11-01T04:52:33.869Z,0.00
2022-11-01T04:53:33.909Z,0.00
2022-11-01T04:54:33.960Z,0.00
2022-11-01T04:55:33.992Z,0.00
2022-11-01T04:56:34.031Z,0.00
2022-11-01T04:57:34.082Z,0.00
2022-11-01T04:58:34.131Z,0.00
2022-11-01T04:59:34.187Z,0.00
2022-11-01T05:00:34.277Z,0.00
2022-11-01T05:01:34.402Z,0.00
2022-11-01T05:02:34.283Z,0.00
2022-11-01T05:03:34.323Z,0.00
2022-11-01T05:04:34.373Z,0.00
2022-11-01T05:05:34.413Z,0.00
2022-11-01T05:06:34.455Z,0.00
2022-11-01T05:07:34.474Z,0.00
2022-11-01T05:08:34.475Z,0.00
2022-11-01T05:09:34.534Z,0.00
2022-11-01T05:10:34.566Z,0.00
2022-11-01T05:11:34.606Z,0.00
2022-11-01T05:12:34.645Z,0.00
2022-11-01T05:13:34.696Z,0.00
2022-11-01T05:14:34.759Z,0.00
2022-11-01T05:15:36.879Z,0.00
2022-11-01T05:16:34.748Z,0.00
2022-11-01T05:17:34.788Z,0.00
2022-11-01T05:18:34.828Z,0.00
2022-11-01T05:19:34.877Z,0.00
2022-11-01T05:20:34.916Z,0.00
2022-11-01T05:21:34.978Z,0.00
2022-11-01T05:22:35.046Z,0.00
2022-11-01T05:23:35.089Z,0.00
2022-11-01T05:24:35.170Z,0.00
2022-11-01T05:25:37.953Z,0.00
2022-11-01T05:26:35.151Z,0.00
2022-11-01T05:27:35.191Z,0.00
2022-11-01T05:28:35.275Z,0.00
2022-11-01T05:29:35.240Z,0.00
2022-11-01T05:30:35.289Z,0.00
2022-11-01T05:31:35.332Z,0.00
2022-11-01T05:32:35.362Z,0.00
2022-11-01T05:33:35.425Z,0.00
2022-11-01T05:34:35.472Z,0.00
2022-11-01T05:35:35.523Z,0.00
2022-11-01T05:36:35.584Z,0.00
2022-11-01T05:37:35.647Z,0.00
2022-11-01T05:38:35.693Z,0.00
2022-11-01T05:39:35.744Z,0.00
2022-11-01T05:40:35.795Z,0.00
2022-11-01T05:41:35.855Z,0.00
2022-11-01T05:42:35.915Z,0.00
2022-11-01T05:43:35.965Z,0.00
2022-11-01T05:44:36.018Z,0.00
2022-11-01T05:45:36.066Z,0.00
2022-11-01T05:46:36.136Z,0.00
2022-11-01T05:47:36.186Z,0.00
2022-11-01T05:48:36.236Z,0.00
2022-11-01T05:49:36.277Z,0.00
2022-11-01T05:50:36.342Z,0.00
2022-11-01T05:51:36.387Z,0.00
2022-11-01T05:52:36.451Z,0.00
2022-11-01T05:53:36.500Z,0.00
2022-11-01T05:54:36.587Z,0.00
2022-11-01T05:55:36.616Z,0.00
2022-11-01T05:56:36.640Z,0.00
2022-11-01T05:57:36.758Z,0.00
2022-11-01T05:58:36.741Z,0.00
2022-11-01T05:59:36.818Z,0.00
2022-11-01T06:00:36.815Z,0.00
2022-11-01T06:01:36.848Z,0.00
2022-11-01T06:02:36.910Z,0.00
2022-11-01T06:03:36.910Z,0.00
2022-11-01T06:04:36.944Z,0.00
2022-11-01T06:05:36.952Z,0.00
2022-11-01T06:06:36.972Z,0.00
2022-11-01T06:07:37.005Z,0.00
2022-11-01T06:08:37.012Z,0.00
2022-11-01T06:09:37.055Z,0.00
2022-11-01T06:10:37.085Z,0.00
2022-11-01T06:11:41.474Z,5.62
2022-11-01T06:12:37.153Z,5.62
2022-11-01T06:13:37.144Z,5.62
2022-11-01T06:14:37.169Z,5.62
2022-11-01T06:15:39.593Z,5.62
2022-11-01T06:16:37.195Z,5.62
2022-11-01T06:17:37.236Z,5.62
2022-11-01T06:18:37.306Z,5.62
2022-11-01T06:19:37.358Z,5.62
2022-11-01T06:20:37.427Z,11.25
2022-11-01T06:21:37.492Z,11.25
2022-11-01T06:22:37.537Z,11.25
2022-11-01T06:23:37.539Z,11.25
2022-11-01T06:24:37.578Z,11.25
2022-11-01T06:25:37.657Z,16.88
2022-11-01T06:26:37.709Z,16.88
2022-11-01T06:27:37.761Z,22.50
2022-11-01T06:28:37.780Z,28.12
2022-11-01T06:29:37.839Z,28.12
2022-11-01T06:30:37.864Z,28.12
2022-11-01T06:31:37.880Z,33.75
2022-11-01T06:32:37.840Z,33.75
2022-11-01T06:33:37.943Z,33.75
2022-11-01T06:34:42.242Z,33.75
2022-11-01T06:35:37.923Z,28.12
2022-11-01T06:36:37.968Z,28.12
2022-11-01T06:37:38.003Z,28.12
2022-11-01T06:38:38.043Z,28.12
2022-11-01T06:39:38.081Z,28.12
2022-11-01T06:40:38.134Z,28.12
2022-11-01T06:41:38.194Z,28.12
2022-11-01T06:42:41.227Z,28.12
2022-11-01T06:43:38.268Z,28.12
2022-11-01T06:44:38.294Z,33.75
2022-11-01T06:45:38.358Z,33.75
2022-11-01T06:46:38.395Z,33.75
2022-11-01T06:48:38.376Z,39.38
2022-11-01T06:49:38.388Z,39.38
2022-11-01T06:50:38.367Z,39.38
2022-11-01T06:51:38.377Z,45.00
2022-11-01T06:52:38.399Z,45.00
2022-11-01T06:53:38.430Z,50.62
2022-11-01T06:54:38.458Z,50.62
2022-11-01T06:55:38.486Z,56.25
2022-11-01T06:56:38.508Z,56.25
2022-11-01T06:57:38.529Z,61.88
2022-11-01T06:58:38.549Z,61.88
2022-11-01T06:59:38.578Z,67.50
2022-11-01T07:00:38.610Z,67.50
2022-11-01T07:01:38.681Z,67.50
2022-11-01T07:02:38.861Z,67.50
2022-11-01T07:03:38.810Z,67.50
2022-11-01T07:04:38.722Z,67.50
2022-11-01T07:05:38.685Z,67.50
2022-11-01T07:06:38.712Z,67.50
2022-11-01T07:07:38.722Z,67.50
2022-11-01T07:08:38.760Z,67.50
2022-11-01T07:09:38.774Z,67.50
2022-11-01T07:10:38.803Z,73.12
2022-11-01T07:11:38.864Z,78.75
2022-11-01T07:12:38.934Z,84.38
2022-11-01T07:13:39.015Z,90.00
2022-11-01T07:14:39.055Z,84.38
2022-11-01T07:15:39.045Z,84.38
2022-11-01T07:16:39.064Z,84.38
2022-11-01T07:17:39.095Z,90.00
2022-11-01T07:18:39.166Z,101.25
2022-11-01T07:19:39.136Z,106.88
2022-11-01T07:20:39.241Z,112.50
2022-11-01T07:21:39.206Z,118.12
2022-11-01T07:22:39.197Z,123.75
2022-11-01T07:23:39.268Z,123.75
2022-11-01T07:24:39.317Z,129.38
2022-11-01T07:25:39.394Z,129.38
2022-11-01T07:26:39.378Z,135.00
2022-11-01T07:27:39.398Z,135.00
2022-11-01T07:28:39.423Z,135.00
2022-11-01T07:29:39.458Z,135.00
2022-11-01T07:30:39.490Z,135.00
2022-11-01T07:31:39.520Z,135.00
2022-11-01T07:32:40.035Z,135.00
2022-11-01T07:33:39.541Z,129.38
2022-11-01T07:34:39.584Z,129.38
2022-11-01T07:35:39.644Z,129.38
2022-11-01T07:36:39.713Z,123.75
2022-11-01T07:37:39.712Z,123.75
2022-11-01T07:38:39.713Z,118.12
2022-11-01T07:39:39.713Z,118.12
2022-11-01T07:40:39.723Z,112.50
2022-11-01T07:41:39.794Z,112.50
2022-11-01T07:42:39.834Z,112.50
2022-11-01T07:43:39.858Z,123.75
2022-11-01T07:44:39.826Z,118.12
2022-11-01T07:45:39.846Z,118.12
2022-11-01T07:46:39.897Z,129.38
2022-11-01T07:47:39.944Z,129.38
2022-11-01T07:48:39.963Z,135.00
2022-11-01T07:49:39.977Z,135.00
2022-11-01T07:50:40.010Z,129.38
2022-11-01T07:51:40.067Z,129.38
2022-11-01T07:52:40.098Z,135.00
2022-11-01T07:53:40.187Z,146.25
2022-11-01T07:54:40.160Z,146.25
2022-11-01T07:55:40.187Z,146.25
2022-11-01T07:56:40.191Z,151.88
2022-11-01T07:57:40.182Z,151.88
2022-11-01T07:58:40.230Z,157.50
2022-11-01T07:59:40.282Z,163.12
2022-11-01T08:00:40.320Z,163.12
2022-11-01T08:01:40.491Z,168.75
2022-11-01T08:02:40.383Z,174.38
2022-11-01T08:03:40.392Z,174.38
2022-11-01T08:04:40.443Z,185.62
2022-11-01T08:05:40.512Z,196.88
2022-11-01T08:06:40.536Z,213.75
2022-11-01T08:07:40.597Z,208.12
2022-11-01T08:08:40.623Z,208.12
2022-11-01T08:09:40.655Z,213.75
2022-11-01T08:10:40.666Z,219.38
2022-11-01T08:11:40.684Z,230.62
2022-11-01T08:12:40.865Z,247.50
2022-11-01T08:13:40.734Z,258.75
2022-11-01T08:14:40.737Z,275.62
2022-11-01T08:15:40.765Z,264.38
2022-11-01T08:16:40.766Z,253.12
2022-11-01T08:17:40.796Z,241.88
2022-11-01T08:18:40.807Z,241.88
2022-11-01T08:19:40.845Z,241.88
2022-11-01T08:20:40.828Z,247.50
2022-11-01T08:21:40.830Z,247.50
2022-11-01T08:22:40.899Z,247.50
2022-11-01T08:23:40.908Z,258.75
2022-11-01T08:24:40.949Z,264.38
2022-11-01T08:25:40.948Z,275.62
2022-11-01T08:26:40.990Z,270.00
2022-11-01T08:27:41.009Z,281.25
2022-11-01T08:28:41.059Z,292.50
2022-11-01T08:29:41.072Z,286.88
2022-11-01T08:30:41.135Z,264.38
2022-11-01T08:31:41.164Z,241.88
2022-11-01T08:32:41.242Z,230.62
2022-11-01T08:33:41.203Z,213.75
2022-11-01T08:34:41.273Z,196.88
2022-11-01T08:35:45.872Z,185.62
2022-11-01T08:36:41.286Z,174.38
2022-11-01T08:37:41.356Z,163.12
2022-11-01T08:38:41.395Z,168.75
2022-11-01T08:39:41.416Z,163.12
2022-11-01T08:40:41.494Z,157.50
2022-11-01T08:41:41.546Z,146.25
2022-11-01T08:42:41.576Z,140.62
2022-11-01T08:43:41.593Z,151.88
2022-11-01T08:44:41.667Z,157.50
2022-11-01T08:45:41.667Z,146.25
2022-11-01T08:46:41.700Z,135.00
2022-11-01T08:47:41.707Z,135.00
2022-11-01T08:48:41.739Z,140.62
2022-11-01T08:49:41.784Z,140.62
2022-11-01T08:50:41.829Z,118.12
2022-11-01T08:51:41.859Z,101.25
2022-11-01T08:52:41.947Z,95.62
2022-11-01T08:53:41.982Z,112.50
2022-11-01T08:54:41.969Z,129.38
2022-11-01T08:55:42.060Z,146.25
2022-11-01T08:56:42.031Z,140.62
2022-11-01T08:57:42.118Z,157.50
2022-11-01T08:58:42.141Z,180.00
2022-11-01T08:59:42.182Z,185.62
2022-11-01T09:00:42.213Z,191.25
2022-11-01T09:01:42.350Z,230.62
2022-11-01T09:02:42.282Z,365.62
2022-11-01T09:03:42.314Z,427.50
2022-11-01T09:04:42.382Z,472.50
2022-11-01T09:05:42.424Z,444.38
2022-11-01T09:06:42.464Z,416.25
2022-11-01T09:07:42.535Z,444.38
2022-11-01T09:08:42.585Z,472.50
2022-11-01T09:09:42.577Z,382.50
2022-11-01T09:10:42.647Z,399.38
2022-11-01T09:11:42.719Z,416.25
2022-11-01T09:12:42.784Z,438.75
2022-11-01T09:13:42.760Z,405.00
2022-11-01T09:14:42.828Z,410.62
2022-11-01T09:15:42.899Z,382.50
2022-11-01T09:16:42.958Z,416.25
2022-11-01T09:17:42.968Z,427.50
2022-11-01T09:18:42.949Z,545.62
2022-11-01T09:19:42.949Z,939.38
2022-11-01T09:20:42.982Z,1186.88
2022-11-01T09:21:42.990Z,1372.50
2022-11-01T09:22:43.031Z,1479.38
2022-11-01T09:23:43.030Z,1501.88
2022-11-01T09:24:43.064Z,1569.38
2022-11-01T09:25:43.041Z,1631.25
2022-11-01T09:26:43.032Z,1462.50
2022-11-01T09:27:43.032Z,1209.38
2022-11-01T09:28:43.075Z,905.62
2022-11-01T09:29:45.347Z,1282.50
2022-11-01T09:30:49.866Z,630.00
2022-11-01T09:31:43.134Z,388.12
2022-11-01T09:32:43.144Z,376.88
2022-11-01T09:33:43.205Z,365.62
2022-11-01T09:34:43.257Z,365.62
2022-11-01T09:35:47.656Z,405.00
2022-11-01T09:36:43.309Z,860.62
2022-11-01T09:37:43.338Z,1271.25
2022-11-01T09:38:43.338Z,1327.50
2022-11-01T09:39:43.420Z,1383.75
2022-11-01T09:40:43.398Z,1372.50
2022-11-01T09:41:43.409Z,1428.75
2022-11-01T09:42:43.418Z,1513.12
2022-11-01T09:43:43.486Z,1451.25
2022-11-01T09:44:43.510Z,1299.38
2022-11-01T09:45:43.511Z,770.62
2022-11-01T09:46:43.579Z,618.75
2022-11-01T09:47:43.582Z,472.50
2022-11-01T09:48:43.612Z,388.12
2022-11-01T09:49:43.676Z,365.62
2022-11-01T09:50:43.703Z,354.38
2022-11-01T09:51:43.723Z,399.38
2022-11-01T09:52:43.763Z,466.88
2022-11-01T09:53:43.774Z,562.50
2022-11-01T09:54:43.764Z,556.88
2022-11-01T09:55:43.835Z,511.88
2022-11-01T09:56:43.814Z,506.25
2022-11-01T09:57:43.875Z,528.75
2022-11-01T09:58:43.948Z,506.25
2022-11-01T09:59:43.936Z,483.75
2022-11-01T10:00:43.985Z,461.25
2022-11-01T10:01:44.103Z,478.12
2022-11-01T10:02:43.997Z,489.38
2022-11-01T10:03:44.058Z,478.12
2022-11-01T10:04:44.108Z,483.75
2022-11-01T10:05:44.118Z,483.75
2022-11-01T10:06:44.150Z,466.88
2022-11-01T10:07:44.130Z,455.62
2022-11-01T10:08:44.179Z,410.62
2022-11-01T10:09:44.171Z,365.62
2022-11-01T10:10:44.156Z,365.62
2022-11-01T10:11:44.281Z,371.25
2022-11-01T10:12:44.221Z,331.88
2022-11-01T10:13:44.279Z,315.00
2022-11-01T10:14:44.309Z,337.50
2022-11-01T10:15:44.323Z,343.12
2022-11-01T10:16:44.373Z,337.50
2022-11-01T10:17:49.406Z,478.12
2022-11-01T10:18:44.424Z,663.75
2022-11-01T10:19:44.412Z,849.38
2022-11-01T10:20:44.404Z,888.75
2022-11-01T10:21:44.467Z,973.12
2022-11-01T10:22:44.505Z,984.38
2022-11-01T10:23:44.466Z,990.00
2022-11-01T10:24:44.506Z,984.38
2022-11-01T10:25:44.514Z,967.50
2022-11-01T10:26:44.568Z,961.88
2022-11-01T10:27:44.598Z,984.38
2022-11-01T10:28:44.638Z,984.38
2022-11-01T10:29:44.637Z,967.50
2022-11-01T10:30:44.669Z,973.12
2022-11-01T10:31:44.756Z,956.25
2022-11-01T10:32:44.788Z,945.00
2022-11-01T10:33:44.790Z,928.12
2022-11-01T10:34:44.819Z,900.00
2022-11-01T10:35:44.881Z,855.00
2022-11-01T10:36:44.923Z,810.00
2022-11-01T10:37:57.330Z,804.38
2022-11-01T10:40:04.821Z,838.12
2022-11-01T10:40:44.992Z,866.25
2022-11-01T10:41:45.033Z,871.88
2022-11-01T10:42:45.034Z,871.88
2022-11-01T10:43:45.034Z,871.88
2022-11-01T10:44:45.055Z,860.62
2022-11-01T10:45:47.719Z,826.88
2022-11-01T10:46:45.145Z,793.12
2022-11-01T10:47:45.196Z,826.88
2022-11-01T10:48:45.219Z,815.62
2022-11-01T10:50:06.158Z,781.88
2022-11-01T10:50:45.287Z,731.25
2022-11-01T10:51:45.307Z,675.00
2022-11-01T10:52:45.356Z,646.88
2022-11-01T10:53:45.398Z,607.50
2022-11-01T10:54:45.459Z,562.50
2022-11-01T10:55:45.467Z,545.62
2022-11-01T10:56:45.498Z,551.25
2022-11-01T10:57:45.469Z,556.88
2022-11-01T10:58:45.492Z,551.25
2022-11-01T10:59:45.541Z,528.75
2022-11-01T11:00:45.673Z,528.75
2022-11-01T11:01:45.821Z,517.50
2022-11-01T11:02:45.663Z,528.75
2022-11-01T11:03:45.682Z,534.38
2022-11-01T11:04:45.735Z,523.12
2022-11-01T11:05:45.773Z,511.88
2022-11-01T11:06:45.813Z,500.62
2022-11-01T11:07:45.881Z,495.00
2022-11-01T11:08:45.908Z,500.62
2022-11-01T11:09:45.975Z,506.25
2022-11-01T11:10:46.016Z,506.25
2022-11-01T11:11:46.053Z,506.25
2022-11-01T11:12:46.092Z,495.00
2022-11-01T11:13:46.116Z,489.38
2022-11-01T11:14:46.117Z,489.38
2022-11-01T11:15:46.185Z,489.38
2022-11-01T11:16:46.247Z,500.62
2022-11-01T11:17:46.319Z,506.25
2022-11-01T11:18:46.333Z,506.25
2022-11-01T11:19:46.348Z,495.00
2022-11-01T11:20:46.341Z,489.38
2022-11-01T11:21:46.351Z,506.25
2022-11-01T11:22:46.430Z,523.12
2022-11-01T11:23:46.499Z,528.75
2022-11-01T11:24:46.472Z,540.00
2022-11-01T11:25:46.524Z,556.88
2022-11-01T11:26:48.540Z,573.75
2022-11-01T11:27:46.612Z,590.62
2022-11-01T11:28:46.603Z,607.50
2022-11-01T11:29:46.673Z,652.50
2022-11-01T11:30:46.735Z,669.38
2022-11-01T11:31:46.725Z,675.00
2022-11-01T11:32:46.781Z,680.62
2022-11-01T11:33:46.775Z,675.00
2022-11-01T11:34:46.825Z,624.38
2022-11-01T11:35:46.868Z,534.38
2022-11-01T11:36:46.860Z,478.12
2022-11-01T11:37:46.847Z,450.00
2022-11-01T11:38:46.874Z,433.12
2022-11-01T11:39:46.890Z,421.88
2022-11-01T11:40:46.883Z,416.25
2022-11-01T11:41:46.897Z,410.62
2022-11-01T11:42:46.939Z,405.00
2022-11-01T11:43:46.939Z,405.00
2022-11-01T11:44:50.588Z,405.00
2022-11-01T11:45:47.020Z,405.00
2022-11-01T11:46:47.020Z,405.00
2022-11-01T11:47:47.032Z,376.88
2022-11-01T11:48:47.020Z,399.38
2022-11-01T11:49:47.082Z,405.00
2022-11-01T11:50:47.084Z,416.25
2022-11-01T11:51:47.119Z,399.38
2022-11-01T11:52:47.124Z,405.00
2022-11-01T11:53:47.133Z,421.88
2022-11-01T11:54:47.165Z,416.25
2022-11-01T11:55:47.165Z,393.75
2022-11-01T11:56:47.203Z,393.75
2022-11-01T11:57:47.215Z,427.50
2022-11-01T11:58:47.265Z,433.12
2022-11-01T11:59:47.287Z,433.12
2022-11-01T12:00:47.325Z,405.00
2022-11-01T12:01:47.470Z,421.88
2022-11-01T12:02:47.472Z,438.75
2022-11-01T12:03:47.489Z,433.12
2022-11-01T12:04:47.428Z,427.50
2022-11-01T12:05:47.468Z,416.25
2022-11-01T12:06:47.521Z,360.00
2022-11-01T12:07:47.518Z,388.12
2022-11-01T12:08:47.519Z,371.25
2022-11-01T12:09:47.500Z,455.62
2022-11-01T12:10:47.521Z,472.50
2022-11-01T12:11:47.540Z,450.00
2022-11-01T12:12:47.610Z,489.38
2022-11-01T12:13:47.641Z,500.62
2022-11-01T12:14:47.640Z,489.38
2022-11-01T12:15:47.632Z,528.75
2022-11-01T12:16:47.672Z,551.25
2022-11-01T12:17:47.685Z,343.12
2022-11-01T12:18:47.733Z,568.12
2022-11-01T12:19:47.763Z,556.88
2022-11-01T12:20:47.764Z,540.00
2022-11-01T12:21:47.834Z,551.25
2022-11-01T12:22:47.849Z,540.00
2022-11-01T12:23:47.835Z,613.12
2022-11-01T12:24:47.856Z,601.88
2022-11-01T12:25:47.886Z,461.25
2022-11-01T12:26:47.897Z,450.00
2022-11-01T12:27:47.901Z,416.25
2022-11-01T12:28:47.905Z,393.75
2022-11-01T12:29:47.975Z,371.25
2022-11-01T12:30:48.038Z,393.75
2022-11-01T12:31:48.098Z,331.88
2022-11-01T12:32:48.149Z,376.88
2022-11-01T12:33:48.213Z,382.50
2022-11-01T12:34:48.270Z,382.50
2022-11-01T12:35:48.300Z,360.00
2022-11-01T12:36:48.320Z,365.62
2022-11-01T12:37:48.331Z,354.38
2022-11-01T12:38:48.381Z,343.12
2022-11-01T12:39:48.452Z,320.62
2022-11-01T12:40:48.483Z,348.75
2022-11-01T12:41:48.513Z,343.12
2022-11-01T12:42:48.553Z,337.50
2022-11-01T12:43:48.623Z,331.88
2022-11-01T12:44:48.624Z,331.88
2022-11-01T12:45:48.627Z,326.25
2022-11-01T12:46:48.604Z,315.00
2022-11-01T12:47:48.658Z,326.25
2022-11-01T12:48:48.715Z,320.62
2022-11-01T12:49:48.737Z,320.62
2022-11-01T12:50:48.753Z,320.62
2022-11-01T12:51:48.784Z,303.75
2022-11-01T12:52:48.777Z,298.12
2022-11-01T12:53:48.758Z,303.75
2022-11-01T12:54:48.748Z,309.38
2022-11-01T12:55:48.756Z,298.12